sensor_id;sensor_type;location;lat;lon;timestamp;temperature;humidity
58951;DHT22;44730;53.158;6.398;2023-02-17T00:02:05;9.00;99.90
58951;DHT22;44730;53.158;6.398;2023-02-17T00:04:32;10.10;99.90
58951;DHT22;44730;53.158;6.398;2023-02-17T00:06:58;9.10;99.90
58951;DHT22;44730;53.158;6.398;2023-02-17T00:09:24;9.60;99.90
58951;DHT22;44730;53.158;6.398;2023-02-17T00:11:50;9.00;99.90
58951;DHT22;44730;53.158;6.398;2023-02-17T00:14:16;9.00;99.90
58951;DHT22;44730;53.158;6.398;2023-02-17T00:16:43;9.30;99.90
58951;DHT22;44730;53.158;6.398;2023-02-17T00:19:10;9.70;99.90
58951;DHT22;44730;53.158;6.398;2023-02-17T00:21:59;9.30;99.90
58951;DHT22;44730;53.158;6.398;2023-02-17T00:24:26;9.50;99.90
58951;DHT22;44730;53.158;6.398;2023-02-17T00:26:53;9.00;99.90
58951;DHT22;44730;53.158;6.398;2023-02-17T00:29:18;9.20;99.90
58951;DHT22;44730;53.158;6.398;2023-02-17T00:31:45;9.10;99.90
58951;DHT22;44730;53.158;6.398;2023-02-17T00:34:11;9.00;99.90
58951;DHT22;44730;53.158;6.398;2023-02-17T00:36:37;9.00;99.90
58951;DHT22;44730;53.158;6.398;2023-02-17T00:39:04;9.10;99.90
58951;DHT22;44730;53.158;6.398;2023-02-17T00:41:30;9.10;99.90
58951;DHT22;44730;53.158;6.398;2023-02-17T00:43:56;9.20;99.90
58951;DHT22;44730;53.158;6.398;2023-02-17T00:46:21;9.00;99.90
58951;DHT22;44730;53.158;6.398;2023-02-17T00:48:47;9.10;99.90
58951;DHT22;44730;53.158;6.398;2023-02-17T00:51:14;9.20;99.90
58951;DHT22;44730;53.158;6.398;2023-02-17T00:53:40;9.60;99.90
58951;DHT22;44730;53.158;6.398;2023-02-17T00:56:07;9.10;99.90
58951;DHT22;44730;53.158;6.398;2023-02-17T00:58:34;9.20;99.90
58951;DHT22;44730;53.158;6.398;2023-02-17T01:01:00;9.10;99.90
58951;DHT22;44730;53.158;6.398;2023-02-17T01:03:26;9.10;99.90
58951;DHT22;44730;53.158;6.398;2023-02-17T01:05:53;9.20;99.90
58951;DHT22;44730;53.158;6.398;2023-02-17T01:08:19;9.10;99.90
58951;DHT22;44730;53.158;6.398;2023-02-17T01:10:46;9.20;99.90
58951;DHT22;44730;53.158;6.398;2023-02-17T01:13:13;9.20;99.90
58951;DHT22;44730;53.158;6.398;2023-02-17T01:15:48;9.20;99.90
58951;DHT22;44730;53.158;6.398;2023-02-17T01:18:16;9.20;99.90
58951;DHT22;44730;53.158;6.398;2023-02-17T01:20:43;9.30;99.90
58951;DHT22;44730;53.158;6.398;2023-02-17T01:23:10;9.30;99.90
58951;DHT22;44730;53.158;6.398;2023-02-17T01:25:41;9.20;99.90
58951;DHT22;44730;53.158;6.398;2023-02-17T01:28:08;9.20;99.90
58951;DHT22;44730;53.158;6.398;2023-02-17T01:30:35;9.30;99.90
58951;DHT22;44730;53.158;6.398;2023-02-17T01:33:01;9.30;99.90
58951;DHT22;44730;53.158;6.398;2023-02-17T01:35:26;9.20;99.90
58951;DHT22;44730;53.158;6.398;2023-02-17T01:37:52;9.30;99.90
58951;DHT22;44730;53.158;6.398;2023-02-17T01:40:18;9.30;99.90
58951;DHT22;44730;53.158;6.398;2023-02-17T01:42:44;9.40;99.90
58951;DHT22;44730;53.158;6.398;2023-02-17T01:47:43;9.30;99.90
58951;DHT22;44730;53.158;6.398;2023-02-17T01:50:09;9.30;99.90
58951;DHT22;44730;53.158;6.398;2023-02-17T01:52:36;9.30;99.90
58951;DHT22;44730;53.158;6.398;2023-02-17T01:55:10;9.90;99.90
58951;DHT22;44730;53.158;6.398;2023-02-17T01:57:38;9.30;99.90
58951;DHT22;44730;53.158;6.398;2023-02-17T02:00:07;9.40;99.90
58951;DHT22;44730;53.158;6.398;2023-02-17T02:02:34;9.40;99.90
58951;DHT22;44730;53.158;6.398;2023-02-17T02:05:00;9.40;99.90
58951;DHT22;44730;53.158;6.398;2023-02-17T02:07:31;9.40;99.90
58951;DHT22;44730;53.158;6.398;2023-02-17T02:09:59;9.40;99.90
58951;DHT22;44730;53.158;6.398;2023-02-17T02:12:27;9.40;99.90
58951;DHT22;44730;53.158;6.398;2023-02-17T02:14:56;9.40;99.90
58951;DHT22;44730;53.158;6.398;2023-02-17T02:28:47;9.40;99.90
58951;DHT22;44730;53.158;6.398;2023-02-17T02:32:14;9.40;99.90
58951;DHT22;44730;53.158;6.398;2023-02-17T02:35:14;9.40;99.90
58951;DHT22;44730;53.158;6.398;2023-02-17T02:37:26;9.40;99.90
58951;DHT22;44730;53.158;6.398;2023-02-17T02:39:59;9.40;99.90
58951;DHT22;44730;53.158;6.398;2023-02-17T02:42:28;9.40;99.90
58951;DHT22;44730;53.158;6.398;2023-02-17T02:44:55;9.50;99.90
58951;DHT22;44730;53.158;6.398;2023-02-17T02:53:41;9.40;99.90
58951;DHT22;44730;53.158;6.398;2023-02-17T02:58:36;9.40;99.90
58951;DHT22;44730;53.158;6.398;2023-02-17T03:01:12;9.40;99.90
58951;DHT22;44730;53.158;6.398;2023-02-17T03:06:25;9.30;99.90
58951;DHT22;44730;53.158;6.398;2023-02-17T03:09:13;9.30;99.90
58951;DHT22;44730;53.158;6.398;2023-02-17T03:11:41;9.20;99.90
58951;DHT22;44730;53.158;6.398;2023-02-17T03:14:09;9.40;99.90
58951;DHT22;44730;53.158;6.398;2023-02-17T03:16:37;9.30;99.90
58951;DHT22;44730;53.158;6.398;2023-02-17T03:19:03;9.30;99.90
58951;DHT22;44730;53.158;6.398;2023-02-17T03:21:39;9.30;99.90
58951;DHT22;44730;53.158;6.398;2023-02-17T03:24:06;9.20;99.90
58951;DHT22;44730;53.158;6.398;2023-02-17T03:26:31;9.20;99.90
58951;DHT22;44730;53.158;6.398;2023-02-17T03:28:57;9.30;99.90
58951;DHT22;44730;53.158;6.398;2023-02-17T03:31:23;9.30;99.90
58951;DHT22;44730;53.158;6.398;2023-02-17T03:33:49;9.30;99.90
58951;DHT22;44730;53.158;6.398;2023-02-17T03:36:15;9.30;99.90
58951;DHT22;44730;53.158;6.398;2023-02-17T03:38:41;9.30;99.90
58951;DHT22;44730;53.158;6.398;2023-02-17T03:41:06;9.30;99.90
58951;DHT22;44730;53.158;6.398;2023-02-17T03:43:32;9.60;99.90
58951;DHT22;44730;53.158;6.398;2023-02-17T03:45:58;9.30;99.90
58951;DHT22;44730;53.158;6.398;2023-02-17T03:48:23;9.40;99.90
58951;DHT22;44730;53.158;6.398;2023-02-17T03:50:49;9.30;99.90
58951;DHT22;44730;53.158;6.398;2023-02-17T03:53:15;9.30;99.90
58951;DHT22;44730;53.158;6.398;2023-02-17T03:55:40;9.30;99.90
58951;DHT22;44730;53.158;6.398;2023-02-17T03:58:06;9.30;99.90
58951;DHT22;44730;53.158;6.398;2023-02-17T04:00:32;9.30;99.90
58951;DHT22;44730;53.158;6.398;2023-02-17T04:02:57;9.70;99.90
58951;DHT22;44730;53.158;6.398;2023-02-17T04:05:23;9.30;99.90
58951;DHT22;44730;53.158;6.398;2023-02-17T04:07:49;9.20;99.90
58951;DHT22;44730;53.158;6.398;2023-02-17T04:10:15;9.30;99.90
58951;DHT22;44730;53.158;6.398;2023-02-17T04:12:41;9.20;99.90
58951;DHT22;44730;53.158;6.398;2023-02-17T04:15:07;9.20;99.90
58951;DHT22;44730;53.158;6.398;2023-02-17T04:17:37;9.30;99.90
58951;DHT22;44730;53.158;6.398;2023-02-17T04:20:04;9.10;99.90
58951;DHT22;44730;53.158;6.398;2023-02-17T04:22:30;9.20;99.90
58951;DHT22;44730;53.158;6.398;2023-02-17T04:24:56;9.20;99.90
58951;DHT22;44730;53.158;6.398;2023-02-17T04:27:22;9.20;99.90
58951;DHT22;44730;53.158;6.398;2023-02-17T04:29:47;9.20;99.90
58951;DHT22;44730;53.158;6.398;2023-02-17T04:32:13;9.20;99.90
58951;DHT22;44730;53.158;6.398;2023-02-17T04:34:39;9.10;99.90
58951;DHT22;44730;53.158;6.398;2023-02-17T04:37:05;9.50;99.90
58951;DHT22;44730;53.158;6.398;2023-02-17T04:39:30;9.10;99.90
58951;DHT22;44730;53.158;6.398;2023-02-17T04:41:56;9.10;99.90
58951;DHT22;44730;53.158;6.398;2023-02-17T04:44:22;9.10;99.90
58951;DHT22;44730;53.158;6.398;2023-02-17T04:46:47;9.10;99.90
58951;DHT22;44730;53.158;6.398;2023-02-17T04:49:13;9.10;99.90
58951;DHT22;44730;53.158;6.398;2023-02-17T04:51:39;9.00;99.90
58951;DHT22;44730;53.158;6.398;2023-02-17T04:54:04;9.00;99.90
58951;DHT22;44730;53.158;6.398;2023-02-17T04:56:30;9.00;99.90
58951;DHT22;44730;53.158;6.398;2023-02-17T04:58:56;9.10;99.90
58951;DHT22;44730;53.158;6.398;2023-02-17T05:01:21;9.00;99.90
58951;DHT22;44730;53.158;6.398;2023-02-17T05:03:47;9.00;99.90
58951;DHT22;44730;53.158;6.398;2023-02-17T05:06:13;9.00;99.90
58951;DHT22;44730;53.158;6.398;2023-02-17T05:08:38;9.00;99.90
58951;DHT22;44730;53.158;6.398;2023-02-17T05:11:04;9.00;99.90
58951;DHT22;44730;53.158;6.398;2023-02-17T05:13:30;9.00;99.90
58951;DHT22;44730;53.158;6.398;2023-02-17T05:15:57;9.00;99.90
58951;DHT22;44730;53.158;6.398;2023-02-17T05:18:23;9.10;99.90
58951;DHT22;44730;53.158;6.398;2023-02-17T05:20:49;9.40;99.90
58951;DHT22;44730;53.158;6.398;2023-02-17T05:23:16;9.00;99.90
58951;DHT22;44730;53.158;6.398;2023-02-17T05:25:41;9.00;99.90
58951;DHT22;44730;53.158;6.398;2023-02-17T05:28:07;9.10;99.90
58951;DHT22;44730;53.158;6.398;2023-02-17T05:30:33;9.00;99.90
58951;DHT22;44730;53.158;6.398;2023-02-17T05:32:58;9.00;99.90
58951;DHT22;44730;53.158;6.398;2023-02-17T05:35:25;9.00;99.90
58951;DHT22;44730;53.158;6.398;2023-02-17T05:37:50;9.00;99.90
58951;DHT22;44730;53.158;6.398;2023-02-17T05:40:16;9.00;99.90
58951;DHT22;44730;53.158;6.398;2023-02-17T05:42:42;9.00;99.90
58951;DHT22;44730;53.158;6.398;2023-02-17T05:45:08;8.90;99.90
58951;DHT22;44730;53.158;6.398;2023-02-17T05:47:33;9.00;99.90
58951;DHT22;44730;53.158;6.398;2023-02-17T05:50:00;8.90;99.90
58951;DHT22;44730;53.158;6.398;2023-02-17T05:52:26;8.90;99.90
58951;DHT22;44730;53.158;6.398;2023-02-17T05:54:51;8.90;99.90
58951;DHT22;44730;53.158;6.398;2023-02-17T05:57:17;9.70;99.90
58951;DHT22;44730;53.158;6.398;2023-02-17T05:59:43;9.00;99.90
58951;DHT22;44730;53.158;6.398;2023-02-17T06:02:09;8.90;99.90
58951;DHT22;44730;53.158;6.398;2023-02-17T06:04:34;9.00;99.90
58951;DHT22;44730;53.158;6.398;2023-02-17T06:07:00;8.90;99.90
58951;DHT22;44730;53.158;6.398;2023-02-17T06:09:26;9.00;99.90
58951;DHT22;44730;53.158;6.398;2023-02-17T06:11:51;9.00;99.90
58951;DHT22;44730;53.158;6.398;2023-02-17T06:14:17;8.90;99.90
58951;DHT22;44730;53.158;6.398;2023-02-17T06:16:43;9.00;99.90
58951;DHT22;44730;53.158;6.398;2023-02-17T06:19:09;9.10;99.90
58951;DHT22;44730;53.158;6.398;2023-02-17T06:21:35;9.00;99.90
58951;DHT22;44730;53.158;6.398;2023-02-17T06:24:00;9.00;99.90
58951;DHT22;44730;53.158;6.398;2023-02-17T06:26:26;9.10;99.90
58951;DHT22;44730;53.158;6.398;2023-02-17T06:28:52;9.10;99.90
58951;DHT22;44730;53.158;6.398;2023-02-17T06:31:18;9.00;99.90
58951;DHT22;44730;53.158;6.398;2023-02-17T06:33:43;9.10;99.90
58951;DHT22;44730;53.158;6.398;2023-02-17T06:36:09;9.20;99.90
58951;DHT22;44730;53.158;6.398;2023-02-17T06:38:35;9.10;99.90
58951;DHT22;44730;53.158;6.398;2023-02-17T06:41:01;9.10;99.90
58951;DHT22;44730;53.158;6.398;2023-02-17T06:43:26;9.10;99.90
58951;DHT22;44730;53.158;6.398;2023-02-17T06:45:52;9.10;99.90
58951;DHT22;44730;53.158;6.398;2023-02-17T06:48:21;9.20;99.90
58951;DHT22;44730;53.158;6.398;2023-02-17T06:50:48;9.20;99.90
58951;DHT22;44730;53.158;6.398;2023-02-17T06:53:14;9.20;99.90
58951;DHT22;44730;53.158;6.398;2023-02-17T06:55:42;9.30;99.90
58951;DHT22;44730;53.158;6.398;2023-02-17T06:58:07;9.30;99.90
58951;DHT22;44730;53.158;6.398;2023-02-17T07:00:33;9.20;99.90
58951;DHT22;44730;53.158;6.398;2023-02-17T07:02:59;9.30;99.90
58951;DHT22;44730;53.158;6.398;2023-02-17T07:05:24;9.20;99.90
58951;DHT22;44730;53.158;6.398;2023-02-17T07:07:50;9.20;99.90
58951;DHT22;44730;53.158;6.398;2023-02-17T07:10:18;9.20;99.90
58951;DHT22;44730;53.158;6.398;2023-02-17T07:12:43;9.30;99.90
58951;DHT22;44730;53.158;6.398;2023-02-17T07:15:09;9.30;99.90
58951;DHT22;44730;53.158;6.398;2023-02-17T07:17:35;9.40;99.90
58951;DHT22;44730;53.158;6.398;2023-02-17T07:20:01;9.30;99.90
58951;DHT22;44730;53.158;6.398;2023-02-17T07:22:27;9.30;99.90
58951;DHT22;44730;53.158;6.398;2023-02-17T07:24:52;9.30;99.90
58951;DHT22;44730;53.158;6.398;2023-02-17T07:27:18;9.40;99.90
58951;DHT22;44730;53.158;6.398;2023-02-17T07:29:44;9.40;99.90
58951;DHT22;44730;53.158;6.398;2023-02-17T07:32:09;9.30;99.90
58951;DHT22;44730;53.158;6.398;2023-02-17T07:34:36;9.40;99.90
58951;DHT22;44730;53.158;6.398;2023-02-17T07:37:02;9.40;99.90
58951;DHT22;44730;53.158;6.398;2023-02-17T07:39:28;9.40;99.90
58951;DHT22;44730;53.158;6.398;2023-02-17T07:41:53;9.50;99.90
58951;DHT22;44730;53.158;6.398;2023-02-17T07:44:19;9.40;99.90
58951;DHT22;44730;53.158;6.398;2023-02-17T07:46:45;9.40;99.90
58951;DHT22;44730;53.158;6.398;2023-02-17T07:49:11;9.50;99.90
58951;DHT22;44730;53.158;6.398;2023-02-17T07:51:37;9.60;99.90
58951;DHT22;44730;53.158;6.398;2023-02-17T07:54:03;9.60;99.90
58951;DHT22;44730;53.158;6.398;2023-02-17T07:56:29;9.60;99.90
58951;DHT22;44730;53.158;6.398;2023-02-17T07:58:55;9.60;99.90
58951;DHT22;44730;53.158;6.398;2023-02-17T08:01:22;9.60;99.90
58951;DHT22;44730;53.158;6.398;2023-02-17T08:03:49;9.60;99.90
58951;DHT22;44730;53.158;6.398;2023-02-17T08:06:18;9.70;99.90
58951;DHT22;44730;53.158;6.398;2023-02-17T08:08:44;9.70;99.90
58951;DHT22;44730;53.158;6.398;2023-02-17T08:11:29;9.80;99.90
58951;DHT22;44730;53.158;6.398;2023-02-17T08:14:14;9.80;99.90
58951;DHT22;44730;53.158;6.398;2023-02-17T08:16:40;9.80;99.90
58951;DHT22;44730;53.158;6.398;2023-02-17T08:19:06;9.80;99.90
58951;DHT22;44730;53.158;6.398;2023-02-17T08:21:31;9.80;99.90
58951;DHT22;44730;53.158;6.398;2023-02-17T08:23:57;9.90;99.90
58951;DHT22;44730;53.158;6.398;2023-02-17T08:26:23;9.90;99.90
58951;DHT22;44730;53.158;6.398;2023-02-17T08:28:49;10.00;99.90
58951;DHT22;44730;53.158;6.398;2023-02-17T08:31:30;8.80;99.90
58951;DHT22;44730;53.158;6.398;2023-02-17T08:33:56;10.00;99.90
58951;DHT22;44730;53.158;6.398;2023-02-17T08:36:23;10.00;99.90
58951;DHT22;44730;53.158;6.398;2023-02-17T08:38:50;10.00;99.90
58951;DHT22;44730;53.158;6.398;2023-02-17T08:41:21;10.10;99.90
58951;DHT22;44730;53.158;6.398;2023-02-17T08:43:47;10.00;99.90
58951;DHT22;44730;53.158;6.398;2023-02-17T08:46:13;10.10;99.90
58951;DHT22;44730;53.158;6.398;2023-02-17T08:48:40;10.10;99.90
58951;DHT22;44730;53.158;6.398;2023-02-17T08:51:06;10.20;99.90
58951;DHT22;44730;53.158;6.398;2023-02-17T08:53:33;10.20;99.90
58951;DHT22;44730;53.158;6.398;2023-02-17T08:55:58;10.30;99.90
58951;DHT22;44730;53.158;6.398;2023-02-17T08:58:24;10.30;99.90
58951;DHT22;44730;53.158;6.398;2023-02-17T09:00:50;10.30;99.90
58951;DHT22;44730;53.158;6.398;2023-02-17T09:03:16;10.30;99.90
58951;DHT22;44730;53.158;6.398;2023-02-17T09:05:42;10.30;99.90
58951;DHT22;44730;53.158;6.398;2023-02-17T09:08:08;10.40;99.90
58951;DHT22;44730;53.158;6.398;2023-02-17T09:10:35;10.40;99.90
58951;DHT22;44730;53.158;6.398;2023-02-17T09:13:01;10.40;99.90
58951;DHT22;44730;53.158;6.398;2023-02-17T09:15:27;10.40;99.90
58951;DHT22;44730;53.158;6.398;2023-02-17T09:17:53;10.40;99.90
58951;DHT22;44730;53.158;6.398;2023-02-17T09:20:19;10.40;99.90
58951;DHT22;44730;53.158;6.398;2023-02-17T09:22:45;10.50;99.90
58951;DHT22;44730;53.158;6.398;2023-02-17T09:25:10;10.50;99.90
58951;DHT22;44730;53.158;6.398;2023-02-17T09:27:36;10.50;99.90
58951;DHT22;44730;53.158;6.398;2023-02-17T09:30:02;10.50;99.90
58951;DHT22;44730;53.158;6.398;2023-02-17T09:32:28;10.50;99.90
58951;DHT22;44730;53.158;6.398;2023-02-17T09:34:53;10.50;99.90
58951;DHT22;44730;53.158;6.398;2023-02-17T09:37:20;10.50;99.90
58951;DHT22;44730;53.158;6.398;2023-02-17T09:39:47;10.50;99.90
58951;DHT22;44730;53.158;6.398;2023-02-17T09:42:23;10.60;99.90
58951;DHT22;44730;53.158;6.398;2023-02-17T09:45:06;10.60;99.90
58951;DHT22;44730;53.158;6.398;2023-02-17T09:47:38;10.60;99.90
58951;DHT22;44730;53.158;6.398;2023-02-17T09:56:15;10.70;99.90
58951;DHT22;44730;53.158;6.398;2023-02-17T09:58:46;10.70;99.90
58951;DHT22;44730;53.158;6.398;2023-02-17T10:01:23;10.80;99.90
58951;DHT22;44730;53.158;6.398;2023-02-17T10:03:56;10.80;99.90
58951;DHT22;44730;53.158;6.398;2023-02-17T10:06:30;10.80;99.90
58951;DHT22;44730;53.158;6.398;2023-02-17T10:09:14;10.90;99.90
58951;DHT22;44730;53.158;6.398;2023-02-17T10:12:16;10.90;99.90
58951;DHT22;44730;53.158;6.398;2023-02-17T10:14:55;10.90;99.90
58951;DHT22;44730;53.158;6.398;2023-02-17T10:17:32;10.90;99.90
58951;DHT22;44730;53.158;6.398;2023-02-17T10:19:59;10.90;99.90
58951;DHT22;44730;53.158;6.398;2023-02-17T10:22:30;10.90;99.90
58951;DHT22;44730;53.158;6.398;2023-02-17T10:24:56;11.00;99.90
58951;DHT22;44730;53.158;6.398;2023-02-17T10:27:36;11.00;99.90
58951;DHT22;44730;53.158;6.398;2023-02-17T10:33:27;11.00;99.90
58951;DHT22;44730;53.158;6.398;2023-02-17T10:41:15;11.00;99.90
58951;DHT22;44730;53.158;6.398;2023-02-17T10:43:43;11.10;99.90
58951;DHT22;44730;53.158;6.398;2023-02-17T10:46:12;11.10;99.90
58951;DHT22;44730;53.158;6.398;2023-02-17T10:48:50;11.10;99.90
58951;DHT22;44730;53.158;6.398;2023-02-17T10:51:21;11.20;99.90
58951;DHT22;44730;53.158;6.398;2023-02-17T10:53:51;11.10;99.90
58951;DHT22;44730;53.158;6.398;2023-02-17T10:56:27;11.20;99.90
58951;DHT22;44730;53.158;6.398;2023-02-17T10:59:21;11.20;99.90
58951;DHT22;44730;53.158;6.398;2023-02-17T11:01:48;11.20;99.90
58951;DHT22;44730;53.158;6.398;2023-02-17T11:04:14;11.10;99.90
58951;DHT22;44730;53.158;6.398;2023-02-17T11:06:47;11.10;99.90
58951;DHT22;44730;53.158;6.398;2023-02-17T11:09:26;11.10;99.90
58951;DHT22;44730;53.158;6.398;2023-02-17T11:12:12;11.10;99.90
58951;DHT22;44730;53.158;6.398;2023-02-17T11:14:44;11.10;99.90
58951;DHT22;44730;53.158;6.398;2023-02-17T11:19:39;11.20;99.90
58951;DHT22;44730;53.158;6.398;2023-02-17T11:22:24;11.10;99.90
58951;DHT22;44730;53.158;6.398;2023-02-17T11:24:58;11.10;99.90
58951;DHT22;44730;53.158;6.398;2023-02-17T11:27:24;11.20;99.90
58951;DHT22;44730;53.158;6.398;2023-02-17T11:29:51;11.20;99.90
58951;DHT22;44730;53.158;6.398;2023-02-17T11:32:17;11.20;99.90
58951;DHT22;44730;53.158;6.398;2023-02-17T11:34:55;11.30;99.90
58951;DHT22;44730;53.158;6.398;2023-02-17T11:37:22;11.40;99.90
58951;DHT22;44730;53.158;6.398;2023-02-17T11:39:54;11.50;99.90
58951;DHT22;44730;53.158;6.398;2023-02-17T11:42:22;11.60;99.90
58951;DHT22;44730;53.158;6.398;2023-02-17T11:44:49;11.60;99.90
58951;DHT22;44730;53.158;6.398;2023-02-17T11:55:34;11.80;99.90
58951;DHT22;44730;53.158;6.398;2023-02-17T11:58:21;11.90;99.90
58951;DHT22;44730;53.158;6.398;2023-02-17T12:03:42;11.90;99.90
58951;DHT22;44730;53.158;6.398;2023-02-17T12:11:48;12.00;99.90
58951;DHT22;44730;53.158;6.398;2023-02-17T12:17:49;12.00;99.90
58951;DHT22;44730;53.158;6.398;2023-02-17T12:20:30;12.00;99.90
58951;DHT22;44730;53.158;6.398;2023-02-17T12:25:57;11.90;99.90
58951;DHT22;44730;53.158;6.398;2023-02-17T12:31:59;11.80;99.90
58951;DHT22;44730;53.158;6.398;2023-02-17T12:34:33;11.90;99.90
58951;DHT22;44730;53.158;6.398;2023-02-17T12:37:03;11.90;99.90
58951;DHT22;44730;53.158;6.398;2023-02-17T12:39:32;11.90;99.90
58951;DHT22;44730;53.158;6.398;2023-02-17T12:42:06;12.00;99.90
58951;DHT22;44730;53.158;6.398;2023-02-17T12:44:40;12.00;99.90
58951;DHT22;44730;53.158;6.398;2023-02-17T12:47:30;12.10;99.90
58951;DHT22;44730;53.158;6.398;2023-02-17T12:50:02;12.10;99.90
58951;DHT22;44730;53.158;6.398;2023-02-17T12:52:34;12.20;99.90
58951;DHT22;44730;53.158;6.398;2023-02-17T12:55:12;12.20;99.90
58951;DHT22;44730;53.158;6.398;2023-02-17T12:57:54;12.20;99.90
58951;DHT22;44730;53.158;6.398;2023-02-17T13:00:42;12.30;99.90
58951;DHT22;44730;53.158;6.398;2023-02-17T13:03:08;12.20;99.90
58951;DHT22;44730;53.158;6.398;2023-02-17T13:11:06;12.30;99.90
58951;DHT22;44730;53.158;6.398;2023-02-17T13:13:33;12.40;99.90
58951;DHT22;44730;53.158;6.398;2023-02-17T13:16:09;12.40;99.90
58951;DHT22;44730;53.158;6.398;2023-02-17T13:18:39;12.40;99.90
58951;DHT22;44730;53.158;6.398;2023-02-17T13:24:01;12.30;99.90
58951;DHT22;44730;53.158;6.398;2023-02-17T13:26:28;12.30;99.90
58951;DHT22;44730;53.158;6.398;2023-02-17T13:29:48;12.40;99.90
58951;DHT22;44730;53.158;6.398;2023-02-17T13:32:00;12.40;99.90
58951;DHT22;44730;53.158;6.398;2023-02-17T13:34:34;12.50;99.90
58951;DHT22;44730;53.158;6.398;2023-02-17T13:37:13;12.50;99.90
58951;DHT22;44730;53.158;6.398;2023-02-17T13:39:38;12.60;99.90
58951;DHT22;44730;53.158;6.398;2023-02-17T13:42:40;12.60;99.90
58951;DHT22;44730;53.158;6.398;2023-02-17T13:45:17;12.60;99.90
58951;DHT22;44730;53.158;6.398;2023-02-17T13:47:45;12.80;99.90
58951;DHT22;44730;53.158;6.398;2023-02-17T13:52:55;13.10;99.90
58951;DHT22;44730;53.158;6.398;2023-02-17T13:55:21;13.10;99.90
58951;DHT22;44730;53.158;6.398;2023-02-17T13:57:57;13.00;99.90
58951;DHT22;44730;53.158;6.398;2023-02-17T14:00:27;13.00;99.90
58951;DHT22;44730;53.158;6.398;2023-02-17T14:03:04;13.10;99.90
58951;DHT22;44730;53.158;6.398;2023-02-17T14:05:39;13.10;99.90
58951;DHT22;44730;53.158;6.398;2023-02-17T14:08:49;13.10;99.90
58951;DHT22;44730;53.158;6.398;2023-02-17T14:10:56;13.10;99.90
58951;DHT22;44730;53.158;6.398;2023-02-17T14:13:24;13.20;99.90
58951;DHT22;44730;53.158;6.398;2023-02-17T14:15:56;13.10;99.90
58951;DHT22;44730;53.158;6.398;2023-02-17T14:18:38;13.10;99.90
58951;DHT22;44730;53.158;6.398;2023-02-17T14:21:08;12.90;99.90
58951;DHT22;44730;53.158;6.398;2023-02-17T14:23:42;12.70;99.90
58951;DHT22;44730;53.158;6.398;2023-02-17T14:26:23;12.50;99.90
58951;DHT22;44730;53.158;6.398;2023-02-17T14:28:55;12.30;99.90
58951;DHT22;44730;53.158;6.398;2023-02-17T14:31:22;12.10;99.90
58951;DHT22;44730;53.158;6.398;2023-02-17T14:34:10;12.00;99.90
58951;DHT22;44730;53.158;6.398;2023-02-17T14:36:38;11.80;99.90
58951;DHT22;44730;53.158;6.398;2023-02-17T14:39:07;11.80;99.90
58951;DHT22;44730;53.158;6.398;2023-02-17T14:41:33;11.80;99.90
58951;DHT22;44730;53.158;6.398;2023-02-17T15:34:41;11.40;99.90
58951;DHT22;44730;53.158;6.398;2023-02-17T15:37:09;11.30;99.90
58951;DHT22;44730;53.158;6.398;2023-02-17T15:39:34;11.20;99.90
58951;DHT22;44730;53.158;6.398;2023-02-17T15:42:05;11.10;99.90
58951;DHT22;44730;53.158;6.398;2023-02-17T15:44:45;11.10;99.90
58951;DHT22;44730;53.158;6.398;2023-02-17T15:47:17;10.80;99.90
58951;DHT22;44730;53.158;6.398;2023-02-17T15:49:44;10.90;99.90
58951;DHT22;44730;53.158;6.398;2023-02-17T15:52:11;10.90;99.90
58951;DHT22;44730;53.158;6.398;2023-02-17T15:54:41;10.80;99.90
58951;DHT22;44730;53.158;6.398;2023-02-17T15:57:14;10.70;99.90
58951;DHT22;44730;53.158;6.398;2023-02-17T15:59:43;10.70;99.90
58951;DHT22;44730;53.158;6.398;2023-02-17T16:02:26;10.60;99.90
58951;DHT22;44730;53.158;6.398;2023-02-17T16:04:52;10.60;99.90
58951;DHT22;44730;53.158;6.398;2023-02-17T16:07:18;10.50;99.90
58951;DHT22;44730;53.158;6.398;2023-02-17T16:09:44;10.50;99.90
58951;DHT22;44730;53.158;6.398;2023-02-17T16:12:19;10.40;99.90
58951;DHT22;44730;53.158;6.398;2023-02-17T16:14:51;10.40;99.90
58951;DHT22;44730;53.158;6.398;2023-02-17T16:17:18;10.30;99.90
58951;DHT22;44730;53.158;6.398;2023-02-17T16:19:43;10.30;99.90
58951;DHT22;44730;53.158;6.398;2023-02-17T16:22:09;10.20;99.90
58951;DHT22;44730;53.158;6.398;2023-02-17T16:24:35;10.10;99.90
58951;DHT22;44730;53.158;6.398;2023-02-17T16:27:04;10.00;99.90
58951;DHT22;44730;53.158;6.398;2023-02-17T16:29:32;9.90;99.90
58951;DHT22;44730;53.158;6.398;2023-02-17T16:31:58;9.80;99.90
58951;DHT22;44730;53.158;6.398;2023-02-17T16:34:24;9.70;99.90
58951;DHT22;44730;53.158;6.398;2023-02-17T16:37:09;9.70;99.90
58951;DHT22;44730;53.158;6.398;2023-02-17T16:39:37;9.60;99.90
58951;DHT22;44730;53.158;6.398;2023-02-17T16:42:11;9.50;99.90
58951;DHT22;44730;53.158;6.398;2023-02-17T16:44:46;9.40;99.90
58951;DHT22;44730;53.158;6.398;2023-02-17T16:47:18;9.40;99.90
58951;DHT22;44730;53.158;6.398;2023-02-17T16:49:46;9.30;99.90
58951;DHT22;44730;53.158;6.398;2023-02-17T16:52:23;9.20;99.90
58951;DHT22;44730;53.158;6.398;2023-02-17T16:54:49;9.10;99.90
58951;DHT22;44730;53.158;6.398;2023-02-17T16:57:16;9.10;99.90
58951;DHT22;44730;53.158;6.398;2023-02-17T16:59:43;9.00;99.90
58951;DHT22;44730;53.158;6.398;2023-02-17T17:02:10;9.00;99.90
58951;DHT22;44730;53.158;6.398;2023-02-17T17:04:37;8.90;99.90
58951;DHT22;44730;53.158;6.398;2023-02-17T17:07:03;8.90;99.90
58951;DHT22;44730;53.158;6.398;2023-02-17T17:09:29;8.80;99.90
58951;DHT22;44730;53.158;6.398;2023-02-17T17:11:55;8.80;99.90
58951;DHT22;44730;53.158;6.398;2023-02-17T17:14:21;8.70;99.90
58951;DHT22;44730;53.158;6.398;2023-02-17T17:16:54;8.70;99.90
58951;DHT22;44730;53.158;6.398;2023-02-17T17:19:20;8.70;99.90
58951;DHT22;44730;53.158;6.398;2023-02-17T17:21:47;8.60;99.90
58951;DHT22;44730;53.158;6.398;2023-02-17T17:24:14;8.60;99.90
58951;DHT22;44730;53.158;6.398;2023-02-17T17:26:42;8.60;99.90
58951;DHT22;44730;53.158;6.398;2023-02-17T17:29:14;8.60;99.90
58951;DHT22;44730;53.158;6.398;2023-02-17T17:31:40;8.50;99.90
58951;DHT22;44730;53.158;6.398;2023-02-17T17:34:06;8.40;99.90
58951;DHT22;44730;53.158;6.398;2023-02-17T17:39:02;8.40;99.90
58951;DHT22;44730;53.158;6.398;2023-02-17T17:41:28;8.30;99.90
58951;DHT22;44730;53.158;6.398;2023-02-17T17:43:55;8.30;99.90
58951;DHT22;44730;53.158;6.398;2023-02-17T17:46:25;8.30;99.90
58951;DHT22;44730;53.158;6.398;2023-02-17T17:48:54;8.30;99.90
58951;DHT22;44730;53.158;6.398;2023-02-17T17:51:21;8.30;99.90
58951;DHT22;44730;53.158;6.398;2023-02-17T17:53:48;8.30;99.90
58951;DHT22;44730;53.158;6.398;2023-02-17T17:56:19;8.20;99.90
58951;DHT22;44730;53.158;6.398;2023-02-17T17:58:45;8.20;99.90
58951;DHT22;44730;53.158;6.398;2023-02-17T18:01:12;8.20;99.90
58951;DHT22;44730;53.158;6.398;2023-02-17T18:03:44;8.10;99.90
58951;DHT22;44730;53.158;6.398;2023-02-17T18:06:26;8.10;99.90